Time;durP1;ratioP1;P1;durP2;ratioP2;P2;SDS_P1;SDS_P2;PMS_P1;PMS_P2;Temp;Humidity;BMP_temperature;BMP_pressure;BME280_temperature;BME280_humidity;BME280_pressure;Samples;Min_cycle;Max_cycle;Signal;HPM_P1;HPM_P2
2022/07/31 00:01:24;;;;;;;7.60;4.20;;;;;;;17.01;78.86;99511.60;107722;1271;138500;-69
2022/07/31 00:03:56;;;;;;;5.70;4.30;;;;;;;16.99;78.88;99507.69;107824;1271;94683;-69
2022/07/31 00:06:29;;;;;;;8.30;4.10;;;;;;;16.98;79.02;99508.11;107714;1270;138181;-69
2022/07/31 00:09:01;;;;;;;7.30;4.10;;;;;;;17.01;79.18;99508.10;107805;1271;111017;-69
2022/07/31 00:11:33;;;;;;;6.90;4.00;;;;;;;17.02;79.05;99507.17;107786;1270;108845;-69
2022/07/31 00:14:06;;;;;;;4.70;3.60;;;;;;;17.01;79.00;99508.77;107724;1271;138041;-69
2022/07/31 00:16:38;;;;;;;8.30;4.10;;;;;;;17.03;79.13;99506.39;107831;1270;94888;-69
2022/07/31 00:19:10;;;;;;;5.70;3.70;;;;;;;17.03;79.07;99506.67;107715;1271;137945;-69
2022/07/31 00:21:42;;;;;;;6.50;3.60;;;;;;;17.05;79.08;99508.36;107791;1270;111279;-69
2022/07/31 00:24:14;;;;;;;6.70;3.60;;;;;;;17.04;79.00;99504.67;107719;1270;138861;-69
2022/07/31 00:26:47;;;;;;;8.60;3.90;;;;;;;17.04;79.03;99498.23;106439;1271;108891;-69
2022/07/31 00:29:24;;;;;;;8.50;3.80;;;;;;;17.03;79.16;99496.86;106181;1270;96461;-69
2022/07/31 00:31:57;;;;;;;6.30;3.70;;;;;;;17.03;79.14;99498.28;106088;1271;138413;-69
2022/07/31 00:34:30;;;;;;;10.20;4.20;;;;;;;17.03;79.23;99495.14;106166;1271;110616;-67
2022/07/31 00:37:02;;;;;;;4.60;3.60;;;;;;;17.02;79.25;99490.09;106502;1271;139350;-68
2022/07/31 00:39:35;;;;;;;8.10;3.80;;;;;;;17.03;79.30;99484.08;106911;1270;108706;-68
2022/07/31 00:42:18;;;;;;;5.70;3.80;;;;;;;17.02;79.40;99480.42;107821;1271;94486;-68
2022/07/31 00:44:51;;;;;;;5.60;3.60;;;;;;;17.03;79.42;99477.36;107827;1271;94760;-68
2022/07/31 00:47:24;;;;;;;7.00;3.90;;;;;;;17.04;79.47;99476.82;107816;1270;111137;-68
2022/07/31 00:49:57;;;;;;;6.80;3.80;;;;;;;17.02;79.30;99485.53;106152;1271;866950;-68
2022/07/31 00:52:29;;;;;;;6.70;3.40;;;;;;;17.01;79.44;99478.41;107800;1270;108845;-68
2022/07/31 00:55:02;;;;;;;5.80;3.90;;;;;;;17.00;79.36;99476.94;107697;1271;138204;-68
2022/07/31 00:57:34;;;;;;;4.60;3.60;;;;;;;16.97;79.50;99477.98;106789;1271;96573;-68
2022/07/31 01:00:08;;;;;;;7.10;4.00;;;;;;;16.97;79.46;99478.16;107166;1271;111094;-69
2022/07/31 01:02:41;;;;;;;9.10;3.70;;;;;;;16.96;79.54;99477.39;107797;1270;108797;-69
2022/07/31 01:05:18;;;;;;;6.10;3.70;;;;;;;16.96;79.59;99475.48;107583;1268;108929;-68
2022/07/31 01:07:51;;;;;;;10.90;4.00;;;;;;;16.95;79.62;99476.94;107697;1270;138807;-68
2022/07/31 01:10:35;;;;;;;5.90;3.60;;;;;;;16.94;79.54;99473.98;107809;1270;94525;-68
2022/07/31 01:13:14;;;;;;;6.70;4.20;;;;;;;16.94;79.54;99473.65;106478;1270;138374;-67
2022/07/31 01:15:47;;;;;;;7.40;3.90;;;;;;;16.94;79.47;99470.70;106167;1271;108324;-70
2022/07/31 01:18:22;;;;;;;5.30;3.80;;;;;;;16.92;79.49;99468.35;107691;1270;139633;-67
2022/07/31 01:20:57;;;;;;;5.70;3.30;;;;;;;16.90;79.41;99465.46;107758;1271;94875;-67
2022/07/31 01:23:50;;;;;;;6.10;3.30;;;;;;;16.89;79.52;99461.52;107761;1270;94830;-67
2022/07/31 01:26:47;;;;;;;7.80;3.70;;;;;;;16.87;79.45;99459.00;107682;1271;138016;-68
2022/07/31 01:29:25;;;;;;;7.80;4.00;;;;;;;16.86;79.46;99453.61;107811;1270;108812;-68
2022/07/31 01:32:03;;;;;;;12.30;4.30;;;;;;;16.87;79.49;99454.79;107681;1270;138700;-68
2022/07/31 01:34:42;;;;;;;6.50;3.90;;;;;;;16.84;79.30;99450.58;107742;1270;94716;-68
2022/07/31 01:37:20;;;;;;;8.00;3.70;;;;;;;16.81;79.16;99446.08;107163;1269;139781;-68
2022/07/31 01:39:55;;;;;;;5.60;3.20;;;;;;;16.77;79.25;99441.99;107788;1270;111140;-68
2022/07/31 01:42:29;;;;;;;7.90;3.90;;;;;;;16.72;79.24;99433.04;106789;1271;139229;-68
2022/07/31 01:45:06;;;;;;;4.90;3.10;;;;;;;16.70;79.37;99425.51;107003;1270;108614;-68
2022/07/31 01:47:39;;;;;;;5.60;3.70;;;;;;;16.70;79.62;99419.34;107777;1270;94642;-69
2022/07/31 01:50:13;;;;;;;7.10;3.50;;;;;;;16.69;79.55;99413.96;107081;1268;138367;-68
2022/07/31 01:53:07;;;;;;;4.50;3.20;;;;;;;16.66;79.55;99412.89;107818;1270;111272;-68
2022/07/31 01:55:42;;;;;;;5.90;2.80;;;;;;;16.64;79.72;99416.52;106752;1271;138051;-68
2022/07/31 01:58:38;;;;;;;5.80;3.90;;;;;;;16.64;79.71;99416.38;107361;1270;108287;-68
2022/07/31 02:01:23;;;;;;;5.30;3.40;;;;;;;16.65;79.80;99413.70;107596;1263;138680;-68
2022/07/31 02:04:00;;;;;;;9.10;3.60;;;;;;;16.67;79.83;99410.09;105714;1273;96444;-69
2022/07/31 02:06:35;;;;;;;6.00;3.50;;;;;;;16.66;79.72;99415.22;106668;1273;138356;-69
2022/07/31 02:09:07;;;;;;;5.10;3.20;;;;;;;16.65;79.84;99412.29;107563;1273;108819;-69
2022/07/31 02:11:40;;;;;;;5.60;3.40;;;;;;;16.66;79.96;99410.64;107311;1272;108820;-68
2022/07/31 02:14:27;;;;;;;7.30;3.90;;;;;;;16.66;79.85;99409.40;105960;1273;139621;-68
2022/07/31 02:17:00;;;;;;;8.10;3.00;;;;;;;16.64;79.85;99405.83;106113;1273;96476;-69
2022/07/31 02:20:02;;;;;;;6.60;3.50;;;;;;;16.65;79.89;99412.27;107483;1274;138421;-69
2022/07/31 02:22:34;;;;;;;5.80;3.70;;;;;;;16.63;79.89;99417.11;107542;1274;108493;-69
2022/07/31 02:25:09;;;;;;;7.00;3.60;;;;;;;16.62;79.99;99413.56;106427;1274;138144;-68
2022/07/31 02:27:44;;;;;;;6.90;3.70;;;;;;;16.60;79.98;99417.55;107563;1274;94876;-69
2022/07/31 02:30:32;;;;;;;6.20;4.00;;;;;;;16.59;80.10;99421.30;107482;1273;138243;-69
2022/07/31 02:33:17;;;;;;;5.40;3.60;;;;;;;16.57;80.24;99410.35;106663;1273;111128;-68
2022/07/31 02:35:50;;;;;;;;;;;;;;;16.59;80.40;99404.45;106065;1273;108942;-68
2022/07/31 02:38:25;;;;;;;4.90;3.30;;;;;;;16.60;80.42;99400.54;105897;1273;124738;-68
2022/07/31 02:41:03;;;;;;;7.20;3.80;;;;;;;16.60;80.48;99401.04;107600;1272;96028;-69
2022/07/31 02:43:37;;;;;;;9.20;3.60;;;;;;;16.61;80.61;99402.77;107553;1273;138390;-69
2022/07/31 02:46:18;;;;;;;6.00;3.50;;;;;;;16.60;80.44;99400.37;107209;1273;110153;-67
2022/07/31 02:48:51;;;;;;;6.90;3.60;;;;;;;16.57;80.46;99396.88;105965;1274;138429;-68
2022/07/31 02:51:25;;;;;;;6.80;4.00;;;;;;;16.56;80.51;99397.66;106086;1274;108821;-69
2022/07/31 02:53:57;;;;;;;6.10;3.70;;;;;;;16.56;80.66;99397.27;106079;1273;96490;-69
2022/07/31 02:56:33;;;;;;;7.20;3.60;;;;;;;16.56;80.73;99397.16;105828;1274;138118;-68
2022/07/31 02:59:05;;;;;;;4.30;3.70;;;;;;;16.56;80.80;99396.97;105956;1273;110294;-68
2022/07/31 03:01:53;;;;;;;5.30;3.40;;;;;;;16.55;80.71;99395.60;105832;1273;138536;-68
2022/07/31 03:04:26;;;;;;;4.80;3.70;;;;;;;16.55;80.81;99393.88;105953;1273;109404;-68
2022/07/31 03:06:59;;;;;;;4.90;3.40;;;;;;;16.54;80.79;99386.40;105844;1274;138108;-69
2022/07/31 03:09:31;;;;;;;5.90;3.80;;;;;;;16.54;80.95;99390.62;105957;1273;96513;-68
2022/07/31 03:12:25;;;;;;;6.00;4.10;;;;;;;16.53;80.99;99385.74;105883;1273;138373;-69
2022/07/31 03:14:59;;;;;;;7.80;3.90;;;;;;;16.52;81.03;99381.80;105896;1274;108839;-68
2022/07/31 03:17:34;;;;;;;5.60;4.10;;;;;;;16.52;81.10;99378.80;107549;1272;109238;-68
2022/07/31 03:20:15;;;;;;;8.70;4.00;;;;;;;16.52;81.06;99377.44;107391;1274;139989;-68
2022/07/31 03:22:50;;;;;;;7.60;3.80;;;;;;;16.52;81.09;99376.02;107404;1273;95152;-68
2022/07/31 03:25:23;;;;;;;6.90;3.50;;;;;;;16.51;81.20;99375.69;106020;1274;137917;-68
2022/07/31 03:27:56;;;;;;;8.50;4.00;;;;;;;16.51;81.23;99375.70;106117;1273;108813;-68
2022/07/31 03:30:28;;;;;;;5.20;3.50;;;;;;;16.50;81.28;99376.84;106001;1273;138761;-67
2022/07/31 03:33:02;;;;;;;4.80;3.90;;;;;;;16.50;81.35;99375.27;106180;1273;96523;-68
2022/07/31 03:35:36;;;;;;;4.80;4.00;;;;;;;16.50;81.36;99371.03;106110;1274;96521;-68
2022/07/31 03:38:16;;;;;;;5.10;4.20;;;;;;;16.50;81.36;99371.70;107517;1273;138652;-69
2022/07/31 03:41:08;;;;;;;6.30;3.90;;;;;;;16.51;81.48;99369.92;107628;1273;107385;-68
2022/07/31 03:43:43;;;;;;;5.40;3.80;;;;;;;16.51;81.56;99363.75;107532;1273;138769;-68
2022/07/31 03:46:22;;;;;;;5.10;3.90;;;;;;;16.51;81.51;99362.73;107608;1274;94863;-68
2022/07/31 03:48:55;;;;;;;6.30;3.80;;;;;;;16.52;81.55;99363.36;107488;1274;139718;-69
2022/07/31 03:51:29;;;;;;;6.80;3.90;;;;;;;16.54;81.64;99357.09;107617;1273;110929;-68
2022/07/31 03:54:02;;;;;;;7.10;3.80;;;;;;;16.55;81.46;99354.73;106974;1273;108959;-68
2022/07/31 03:56:59;;;;;;;5.30;4.00;;;;;;;16.58;81.56;99352.73;107264;1273;108262;-68
2022/07/31 03:59:36;;;;;;;8.10;4.30;;;;;;;16.58;81.49;99354.00;107679;1272;94670;-67
2022/07/31 04:02:19;;;;;;;5.00;3.50;;;;;;;16.58;81.55;99352.56;107523;1273;138149;-68
2022/07/31 04:04:56;;;;;;;5.50;4.20;;;;;;;16.59;81.55;99347.42;107632;1273;110252;-68
2022/07/31 04:07:29;;;;;;;6.30;4.20;;;;;;;16.60;81.47;99345.44;107484;1273;138332;-68
2022/07/31 04:10:02;;;;;;;5.90;4.10;;;;;;;16.61;81.57;99341.84;107487;1273;107804;-68
2022/07/31 04:12:35;;;;;;;6.80;4.10;;;;;;;16.60;81.53;99338.86;106178;1274;138276;-68
2022/07/31 04:15:09;;;;;;;5.60;4.10;;;;;;;16.60;81.50;99335.54;107614;1274;94732;-67
2022/07/31 04:17:41;;;;;;;4.80;3.80;;;;;;;16.60;81.57;99337.52;107541;1272;109740;-67
2022/07/31 04:20:14;;;;;;;5.60;3.80;;;;;;;16.60;81.54;99322.25;106181;1273;138637;-67
2022/07/31 04:22:47;;;;;;;6.60;3.90;;;;;;;16.59;81.56;99322.48;106451;1272;108417;-66
2022/07/31 04:25:35;;;;;;;5.00;3.70;;;;;;;16.56;81.59;99321.84;106946;1273;138481;-68
2022/07/31 04:28:28;;;;;;;5.30;3.80;;;;;;;16.55;81.73;99318.61;107662;1273;94688;-68
2022/07/31 04:31:01;;;;;;;6.00;4.10;;;;;;;16.53;81.74;99322.91;107560;1273;138632;-69
2022/07/31 04:33:37;;;;;;;5.50;3.60;;;;;;;16.53;81.85;99330.31;107568;1273;108869;-69
2022/07/31 04:36:19;;;;;;;4.80;3.70;;;;;;;16.54;81.97;99320.42;105927;1273;138244;-68
2022/07/31 04:39:03;;;;;;;6.30;5.20;;;;;;;16.55;81.98;99322.44;105982;1273;96529;-68
2022/07/31 04:41:36;;;;;;;4.60;3.80;;;;;;;16.54;81.99;99323.73;106109;1273;96386;-67
2022/07/31 04:44:09;;;;;;;5.00;3.70;;;;;;;16.55;82.04;99321.91;105950;1274;138225;-67
2022/07/31 04:47:02;;;;;;;4.40;3.50;;;;;;;16.55;82.13;99317.68;107652;1273;108410;-67
2022/07/31 04:49:37;;;;;;;3.60;2.80;;;;;;;16.54;82.07;99319.19;107507;1273;138388;-68
2022/07/31 04:52:11;;;;;;;4.20;3.20;;;;;;;16.53;82.09;99324.19;107571;1273;94839;-68
2022/07/31 04:54:45;;;;;;;3.30;3.00;;;;;;;16.53;82.33;99325.23;107509;1273;138228;-68
2022/07/31 04:57:18;;;;;;;3.90;3.20;;;;;;;16.55;82.38;99322.26;107580;1273;110029;-67
2022/07/31 04:59:53;;;;;;;3.40;2.70;;;;;;;16.56;82.42;99323.39;107603;1273;108867;-67
2022/07/31 05:02:32;;;;;;;3.20;2.70;;;;;;;16.57;82.46;99327.00;107430;1273;138771;-67
2022/07/31 05:05:05;;;;;;;3.10;2.80;;;;;;;16.59;82.34;99323.73;107593;1273;94478;-68
2022/07/31 05:07:41;;;;;;;3.10;2.80;;;;;;;16.59;82.38;99323.35;107429;1274;140274;-68
2022/07/31 05:13:10;;;;;;;2.90;2.70;;;;;;;16.59;82.31;99325.30;107480;1274;139112;-67
2022/07/31 05:15:43;;;;;;;2.60;2.30;;;;;;;16.58;82.29;99324.14;107692;1273;108820;-68
2022/07/31 05:18:18;;;;;;;2.20;1.90;;;;;;;16.58;82.28;99322.21;107557;1273;138315;-68
2022/07/31 05:21:08;;;;;;;2.70;1.90;;;;;;;16.59;82.30;99324.78;107713;1273;94462;-68
2022/07/31 05:23:53;;;;;;;2.10;1.90;;;;;;;16.60;82.31;99320.31;107573;1274;111300;-67
2022/07/31 05:26:41;;;;;;;2.10;1.90;;;;;;;16.62;82.35;99321.19;107555;1273;107564;-68
2022/07/31 05:29:13;;;;;;;2.10;1.60;;;;;;;16.62;82.24;99320.34;106648;1274;108764;-68
2022/07/31 05:31:46;;;;;;;2.40;1.60;;;;;;;16.62;82.30;99321.23;107474;1273;138380;-69
2022/07/31 05:34:31;;;;;;;2.10;1.60;;;;;;;16.61;82.20;99322.00;106722;1273;96613;-69
2022/07/31 05:37:04;;;;;;;2.70;1.70;;;;;;;16.60;82.13;99325.41;106424;1274;138524;-68
2022/07/31 05:39:39;;;;;;;2.10;1.50;;;;;;;16.62;82.24;99322.23;107612;1273;108537;-68
2022/07/31 05:42:30;;;;;;;1.80;1.40;;;;;;;16.62;82.12;99325.38;106334;1273;138216;-69
2022/07/31 05:45:32;;;;;;;1.80;1.60;;;;;;;16.64;82.16;99323.18;107606;1273;94953;-69
2022/07/31 05:48:05;;;;;;;2.40;1.50;;;;;;;16.64;82.07;99323.52;107308;1273;94836;-69
2022/07/31 05:50:37;;;;;;;1.60;1.50;;;;;;;16.65;82.08;99324.48;107473;1273;137671;-69
2022/07/31 05:53:12;;;;;;;1.60;1.30;;;;;;;16.68;81.99;99324.67;107652;1273;108857;-69
2022/07/31 05:56:04;;;;;;;2.30;1.30;;;;;;;16.69;81.82;99322.34;107615;1273;138184;-69
2022/07/31 05:58:44;;;;;;;1.70;1.20;;;;;;;16.70;81.82;99319.98;107583;1273;94618;-69
2022/07/31 06:01:20;;;;;;;1.40;1.30;;;;;;;16.71;81.78;99319.06;107562;1273;140918;-69
2022/07/31 06:03:52;;;;;;;1.30;1.20;;;;;;;16.70;81.68;99318.75;107633;1273;110357;-69
2022/07/31 06:06:28;;;;;;;1.60;1.20;;;;;;;16.73;81.65;99319.05;107463;1274;138215;-68
2022/07/31 06:09:00;;;;;;;1.90;1.30;;;;;;;16.75;81.65;99322.79;107653;1273;109135;-68
2022/07/31 06:11:39;;;;;;;1.30;1.20;;;;;;;16.78;81.67;99319.58;107569;1274;94833;-68
2022/07/31 06:14:11;;;;;;;1.30;1.20;;;;;;;16.81;81.44;99319.73;107482;1273;138565;-68
2022/07/31 06:17:23;;;;;;;1.30;1.20;;;;;;;16.82;81.32;99318.20;107290;1277;111123;-68
2022/07/31 06:20:15;;;;;;;4.20;1.30;;;;;;;16.82;81.15;99313.31;107065;1279;139115;-68
2022/07/31 06:22:48;;;;;;;1.20;1.10;;;;;;;16.81;81.19;99314.63;107449;1273;107789;-69
2022/07/31 06:25:21;;;;;;;1.70;1.20;;;;;;;16.79;81.10;99311.93;107507;1273;137965;-68
2022/07/31 06:27:53;;;;;;;1.80;1.20;;;;;;;16.78;81.06;99309.73;106404;1273;96594;-68
2022/07/31 06:30:32;;;;;;;1.30;1.20;;;;;;;16.77;81.07;99311.73;107574;1273;138109;-68
2022/07/31 06:33:04;;;;;;;1.50;1.40;;;;;;;16.77;81.08;99312.46;107613;1273;107960;-68
2022/07/31 06:35:40;;;;;;;1.10;1.00;;;;;;;16.76;81.07;99309.70;107551;1273;109076;-68
2022/07/31 06:38:35;;;;;;;1.40;1.30;;;;;;;16.75;80.98;99312.79;107486;1273;140102;-68
2022/07/31 06:41:45;;;;;;;1.30;1.20;;;;;;;16.73;81.01;99313.63;107606;1274;94959;-68
2022/07/31 06:44:44;;;;;;;2.50;1.20;;;;;;;16.71;81.06;99310.98;107058;1273;110234;-68
2022/07/31 06:47:37;;;;;;;1.80;1.10;;;;;;;16.68;81.20;99302.55;106027;1274;109156;-68
2022/07/31 06:50:15;;;;;;;1.10;1.00;;;;;;;16.65;81.13;99307.67;105962;1273;139190;-68
2022/07/31 06:52:57;;;;;;;1.20;1.10;;;;;;;16.63;81.22;99306.95;107579;1273;94809;-68
2022/07/31 06:55:30;;;;;;;1.90;1.30;;;;;;;16.63;81.34;99307.45;107445;1274;139750;-68
2022/07/31 06:58:05;;;;;;;1.30;1.20;;;;;;;16.62;81.36;99306.95;107598;1273;111142;-68
2022/07/31 07:00:37;;;;;;;3.40;1.10;;;;;;;16.65;81.42;99304.16;107530;1273;138636;-68
2022/07/31 07:03:10;;;;;;;1.90;1.30;;;;;;;16.66;81.44;99307.60;107577;1273;108328;-68
2022/07/31 07:05:42;;;;;;;1.10;1.00;;;;;;;16.67;81.40;99304.55;107550;1274;94758;-68
2022/07/31 07:08:18;;;;;;;1.40;1.20;;;;;;;16.67;81.44;99306.87;106603;1273;137953;-67
2022/07/31 07:10:51;;;;;;;1.30;1.20;;;;;;;16.68;81.56;99304.63;106096;1273;111194;-68
2022/07/31 07:13:34;;;;;;;2.30;1.30;;;;;;;16.70;81.67;99298.55;107586;1271;139427;-69
2022/07/31 07:16:18;;;;;;;1.60;1.40;;;;;;;16.71;81.52;99299.17;106927;1273;108929;-69
2022/07/31 07:18:51;;;;;;;1.70;1.40;;;;;;;16.73;81.54;99300.64;105831;1273;141173;-68
2022/07/31 07:21:27;;;;;;;1.60;1.50;;;;;;;16.73;81.48;99298.15;106029;1273;97501;-68
2022/07/31 07:23:59;;;;;;;1.60;1.40;;;;;;;16.75;81.62;99301.55;107505;1274;111561;-68
2022/07/31 07:26:42;;;;;;;2.70;1.50;;;;;;;16.76;81.61;99299.01;107555;1273;107973;-68
2022/07/31 07:29:14;;;;;;;1.80;1.70;;;;;;;16.77;81.60;99299.63;107638;1273;109421;-68
2022/07/31 07:31:46;;;;;;;1.90;1.70;;;;;;;16.78;81.62;99302.00;107492;1273;138143;-68
2022/07/31 07:34:19;;;;;;;3.30;2.80;;;;;;;16.79;81.75;99300.54;107583;1273;94926;-69
2022/07/31 07:36:51;;;;;;;1.60;1.50;;;;;;;16.80;81.79;99300.29;107486;1273;140683;-68
2022/07/31 07:39:26;;;;;;;2.10;1.90;;;;;;;16.81;81.80;99298.48;107616;1273;108154;-68
2022/07/31 07:42:00;;;;;;;2.70;1.80;;;;;;;16.83;81.80;99297.27;106633;1273;108921;-68
2022/07/31 07:44:33;;;;;;;2.20;2.00;;;;;;;16.84;81.92;99301.04;107521;1273;139080;-68
2022/07/31 07:47:06;;;;;;;2.10;1.70;;;;;;;16.86;81.97;99300.38;107577;1274;95147;-68
2022/07/31 07:49:38;;;;;;;2.30;2.10;;;;;;;16.87;81.97;99298.34;107495;1273;138975;-69
2022/07/31 07:52:28;;;;;;;2.40;2.20;;;;;;;16.88;82.00;99299.52;107625;1273;108986;-69
2022/07/31 07:55:05;;;;;;;3.10;2.70;;;;;;;16.90;82.11;99299.73;107533;1273;138801;-69
2022/07/31 07:58:15;;;;;;;3.40;2.50;;;;;;;16.93;82.12;99301.63;107132;1279;94914;-69
2022/07/31 08:01:06;;;;;;;3.00;2.80;;;;;;;16.97;82.19;99297.83;107000;1279;139607;-69
2022/07/31 08:03:39;;;;;;;2.90;2.60;;;;;;;16.99;82.26;99300.49;107443;1273;111619;-69
2022/07/31 08:06:23;;;;;;;3.50;3.20;;;;;;;17.02;82.27;99296.41;107463;1274;138102;-69
2022/07/31 08:08:56;;;;;;;3.40;3.10;;;;;;;17.03;82.25;99297.52;107378;1273;107797;-69
2022/07/31 08:11:47;;;;;;;3.50;3.20;;;;;;;17.04;82.28;99296.95;105890;1273;96567;-67
2022/07/31 08:14:40;;;;;;;3.70;3.30;;;;;;;17.06;82.45;99300.17;105798;1273;96490;-68
2022/07/31 08:17:32;;;;;;;3.60;3.10;;;;;;;17.08;82.54;99297.34;106059;1273;109639;-68
2022/07/31 08:20:07;;;;;;;3.70;3.40;;;;;;;17.10;82.63;99297.42;105866;1273;138460;-70
2022/07/31 08:22:39;;;;;;;4.10;3.60;;;;;;;17.13;82.77;99297.33;107552;1273;108743;-68
2022/07/31 08:25:12;;;;;;;3.80;3.50;;;;;;;17.16;82.77;99300.58;105853;1274;138421;-68
2022/07/31 08:27:48;;;;;;;4.00;3.60;;;;;;;17.19;82.67;99298.42;106051;1273;96492;-68
2022/07/31 08:30:20;;;;;;;4.60;3.50;;;;;;;17.22;82.78;99300.69;106595;1273;138632;-68
2022/07/31 08:33:02;;;;;;;4.50;4.10;;;;;;;17.25;82.74;99301.94;107550;1274;107760;-69
2022/07/31 08:35:38;;;;;;;4.30;3.90;;;;;;;17.25;82.80;99301.89;106274;1274;107809;-68
2022/07/31 08:38:16;;;;;;;4.50;4.10;;;;;;;17.27;82.81;99301.95;107493;1273;138049;-68
2022/07/31 08:41:11;;;;;;;5.10;4.60;;;;;;;17.26;82.87;99300.95;107578;1273;94741;-68
2022/07/31 08:43:59;;;;;;;4.10;3.80;;;;;;;17.27;82.84;99304.91;107287;1273;138357;-69
2022/07/31 08:46:57;;;;;;;4.40;4.00;;;;;;;17.31;83.10;99303.34;106791;1273;108920;-68
2022/07/31 08:49:33;;;;;;;4.40;4.00;;;;;;;17.35;83.19;99299.75;107423;1273;138147;-67
2022/07/31 08:52:09;;;;;;;5.10;4.50;;;;;;;17.40;83.23;99300.90;107536;1274;95479;-69
2022/07/31 08:54:59;;;;;;;5.20;4.70;;;;;;;17.44;83.09;99301.14;107507;1273;138825;-68
2022/07/31 08:57:39;;;;;;;4.70;4.30;;;;;;;17.48;83.07;99301.90;106772;1273;110962;-68
2022/07/31 09:00:16;;;;;;;5.00;4.50;;;;;;;17.51;83.01;99300.04;107607;1274;109179;-68
2022/07/31 09:02:54;;;;;;;5.00;4.40;;;;;;;17.55;82.98;99305.39;107553;1273;108906;-68
2022/07/31 09:05:30;;;;;;;4.60;4.00;;;;;;;17.59;83.02;99304.92;107574;1274;94769;-70
2022/07/31 09:08:15;;;;;;;4.40;4.00;;;;;;;17.62;82.88;99304.95;107509;1274;139222;-68
2022/07/31 09:11:01;;;;;;;4.30;3.90;;;;;;;17.66;83.02;99302.50;107586;1273;109312;-69
2022/07/31 09:13:36;;;;;;;5.00;4.30;;;;;;;17.71;82.89;99303.34;107514;1273;138018;-68
2022/07/31 09:16:17;;;;;;;5.10;4.60;;;;;;;17.75;82.93;99308.13;106449;1275;108727;-67
2022/07/31 09:19:04;;;;;;;4.50;4.10;;;;;;;17.81;82.86;99308.42;107503;1273;138474;-69
2022/07/31 09:21:57;;;;;;;4.40;4.00;;;;;;;17.88;82.73;99312.80;106358;1273;96492;-68
2022/07/31 09:24:33;;;;;;;4.60;4.10;;;;;;;17.91;82.59;99316.23;107491;1273;138499;-69
2022/07/31 09:27:12;;;;;;;4.00;3.70;;;;;;;17.94;82.54;99317.95;106984;1273;107746;-68
2022/07/31 09:29:47;;;;;;;3.80;3.50;;;;;;;17.97;82.49;99321.06;106065;1273;108932;-67
2022/07/31 09:32:46;;;;;;;4.80;4.30;;;;;;;18.00;82.16;99323.98;107255;1273;94832;-68
2022/07/31 09:35:25;;;;;;;4.70;4.00;;;;;;;18.02;82.21;99325.73;107589;1274;94701;-68
2022/07/31 09:37:57;;;;;;;4.30;3.90;;;;;;;18.04;82.14;99329.29;107497;1273;138451;-68
2022/07/31 09:40:47;;;;;;;3.80;3.50;;;;;;;18.04;81.96;99327.18;107048;1273;108875;-69
2022/07/31 09:43:28;;;;;;;4.10;3.70;;;;;;;18.05;81.95;99326.23;105968;1273;139270;-69
2022/07/31 09:46:03;;;;;;;4.60;4.20;;;;;;;18.06;82.00;99329.77;107642;1273;94736;-68
2022/07/31 09:48:37;;;;;;;4.90;4.40;;;;;;;18.08;81.99;99323.67;107486;1273;138023;-69
2022/07/31 09:51:15;;;;;;;3.80;3.50;;;;;;;18.09;81.76;99326.73;107607;1273;111450;-68
2022/07/31 09:53:52;;;;;;;5.80;5.20;;;;;;;18.08;81.69;99327.02;107661;1273;108812;-69
2022/07/31 09:56:48;;;;;;;4.70;3.90;;;;;;;18.08;81.74;99327.52;107545;1273;107829;-69
2022/07/31 09:59:21;;;;;;;4.60;4.20;;;;;;;18.10;81.75;99328.04;106381;1274;96709;-68
2022/07/31 10:01:55;;;;;;;4.50;4.10;;;;;;;18.14;81.80;99328.89;105844;1274;138455;-68
2022/07/31 10:04:28;;;;;;;4.10;3.70;;;;;;;18.18;81.73;99330.53;105863;1274;111000;-68
2022/07/31 10:07:01;;;;;;;4.30;3.60;;;;;;;18.18;81.68;99329.43;105931;1274;138619;-68
2022/07/31 10:09:37;;;;;;;4.70;3.90;;;;;;;18.20;81.63;99332.48;106089;1273;108886;-69
2022/07/31 10:12:19;;;;;;;4.60;4.20;;;;;;;18.21;81.55;99329.90;107619;1273;95220;-69
2022/07/31 10:14:53;;;;;;;4.20;3.90;;;;;;;18.20;81.49;99328.05;107575;1274;94600;-69
2022/07/31 10:17:30;;;;;;;4.80;3.70;;;;;;;18.21;81.46;99323.02;107627;1274;111125;-70
2022/07/31 10:20:09;;;;;;;4.00;3.60;;;;;;;18.23;81.32;99327.43;107528;1273;137862;-70
2022/07/31 10:23:16;;;;;;;7.50;3.40;;;;;;;18.26;81.29;99327.76;106960;1273;107308;-69
2022/07/31 10:25:52;;;;;;;3.80;3.30;;;;;;;18.25;81.29;99328.67;105891;1274;139320;-68
2022/07/31 10:28:25;;;;;;;5.40;3.60;;;;;;;18.27;81.38;99333.98;107661;1273;94579;-69
2022/07/31 10:30:58;;;;;;;3.50;3.20;;;;;;;18.30;81.31;99338.48;107432;1274;138604;-68
2022/07/31 10:33:31;;;;;;;4.00;3.00;;;;;;;18.34;81.46;99334.16;107546;1274;109081;-69
2022/07/31 10:36:41;;;;;;;3.60;3.30;;;;;;;18.39;81.36;99337.63;107448;1273;138803;-69
2022/07/31 10:39:51;;;;;;;6.20;3.10;;;;;;;18.40;80.96;99340.39;106348;1274;96502;-69
2022/07/31 10:42:40;;;;;;;3.50;3.20;;;;;;;18.40;81.02;99344.01;105930;1274;138244;-70
2022/07/31 10:45:15;;;;;;;4.10;3.10;;;;;;;18.39;80.99;99348.30;105887;1274;111585;-69
2022/07/31 10:48:12;;;;;;;3.90;3.00;;;;;;;18.40;81.06;99348.98;105955;1274;108483;-68
2022/07/31 10:51:08;;;;;;;3.40;3.10;;;;;;;18.38;80.98;99351.38;106363;1274;109367;-68
2022/07/31 10:54:02;;;;;;;3.50;3.20;;;;;;;18.38;80.95;99352.15;107640;1274;94785;-68
2022/07/31 10:56:57;;;;;;;;;;;;;;;18.40;80.87;99354.48;106442;1273;96474;-70
2022/07/31 10:59:49;;;;;;;3.70;3.30;;;;;;;18.36;80.74;99354.25;105993;1274;111175;-69
2022/07/31 11:02:40;;;;;;;4.00;3.40;;;;;;;18.35;80.73;99352.02;105801;1274;138094;-68
2022/07/31 11:05:32;;;;;;;4.60;3.20;;;;;;;18.35;80.77;99353.09;105980;1274;108659;-69
2022/07/31 11:08:47;;;;;;;3.70;3.40;;;;;;;18.35;80.87;99352.55;105814;1274;138053;-69
2022/07/31 11:11:39;;;;;;;3.50;2.70;;;;;;;18.38;81.00;99352.63;106073;1274;96468;-69
2022/07/31 11:14:40;;;;;;;3.60;3.00;;;;;;;18.43;80.85;99354.20;107387;1274;138804;-70
2022/07/31 11:17:44;;;;;;;3.30;2.80;;;;;;;18.46;80.68;99352.56;107359;1274;108025;-70
2022/07/31 11:20:45;;;;;;;4.30;3.00;;;;;;;18.47;80.41;99351.27;107520;1273;138111;-70
2022/07/31 11:23:19;;;;;;;5.10;3.30;;;;;;;18.47;80.38;99353.90;107616;1274;94969;-69
2022/07/31 11:25:51;;;;;;;3.60;3.00;;;;;;;18.49;80.47;99355.68;107503;1274;138602;-69
2022/07/31 11:28:23;;;;;;;3.30;3.00;;;;;;;18.51;80.52;99362.06;107626;1274;111007;-69
2022/07/31 11:30:57;;;;;;;4.40;3.30;;;;;;;18.54;80.44;99364.27;107540;1274;138788;-69
2022/07/31 11:33:34;;;;;;;3.10;2.70;;;;;;;18.56;80.31;99366.40;107641;1273;108426;-69
2022/07/31 11:36:15;;;;;;;4.40;3.30;;;;;;;18.58;80.48;99369.92;107648;1274;94441;-69
2022/07/31 11:38:50;;;;;;;8.10;3.30;;;;;;;18.57;80.15;99370.64;107635;1274;95060;-70
2022/07/31 11:41:27;;;;;;;3.80;3.00;;;;;;;18.55;80.06;99369.64;107682;1274;111411;-70
2022/07/31 11:44:02;;;;;;;6.50;3.30;;;;;;;18.54;80.07;99373.22;107527;1274;138015;-70
2022/07/31 11:46:36;;;;;;;3.90;3.40;;;;;;;18.51;79.91;99373.83;107633;1270;109454;-70
2022/07/31 11:49:19;;;;;;;4.90;3.60;;;;;;;18.47;79.85;99372.05;105925;1274;138062;-69
2022/07/31 11:52:13;;;;;;;4.80;3.50;;;;;;;18.42;79.82;99374.13;105973;1274;96568;-69
2022/07/31 11:55:11;;;;;;;3.90;3.20;;;;;;;18.39;79.94;99372.63;105910;1274;138040;-70
2022/07/31 11:57:44;;;;;;;4.70;3.20;;;;;;;18.37;80.03;99373.34;106010;1273;108843;-70
2022/07/31 12:00:24;;;;;;;4.20;3.80;;;;;;;18.36;80.18;99370.78;105971;1274;138705;-68
2022/07/31 12:03:01;;;;;;;4.20;3.80;;;;;;;18.33;80.28;99375.05;106119;1273;96573;-71
2022/07/31 12:05:45;;;;;;;4.80;3.40;;;;;;;18.31;80.25;99376.77;106065;1274;96479;-68
2022/07/31 12:08:18;;;;;;;4.10;3.10;;;;;;;18.31;80.60;99378.92;105926;1273;138060;-68
2022/07/31 12:10:51;;;;;;;3.40;2.70;;;;;;;18.30;80.49;99380.40;107645;1273;108777;-70
2022/07/31 12:13:25;;;;;;;3.90;3.20;;;;;;;18.29;80.37;99385.41;107470;1274;138279;-69
2022/07/31 12:16:03;;;;;;;6.60;3.40;;;;;;;18.27;80.50;99385.01;107625;1273;95165;-70
2022/07/31 12:18:49;;;;;;;3.70;2.90;;;;;;;18.29;80.65;99389.06;107464;1274;138144;-70